Pagrindinis puslapis
METAR-TAF:

METAR-TAF

Oro uostai :

Hatjajus, Tailandas

platuma: 06-55N, ilguma: 100-26E, Aukštis: 27 m

Dabartinis oras

Ataskaita buvo paskelbta 38 minutes, ne 20:30 UTC
Ramus vėjas
Temperatūra 24°C
Drėgmė 100%
Slėgis 1008 hPa
Matomumas: 3000 m
Mažai debesys ne aukštis 2000 ft
rūkana

METAR: VTSS 202030Z 00000KT 3000 BR FEW020 24/24 Q1008 NOSIG

Laikas: 04:08 (21:08 UTC)

Prognozė

Ataskaita buvo paskelbta 4 valandos ir 8 minutes, ne 17:00 UTC
Prognozė galioja nuo 20 metu 18 UTC su 21 metu 18 UTC
Vėjas 2 kt nuo kintamojo kryptimis
Matomumas: 5000 m
Mažai debesys ne aukštis 2000 ft
rūkana
Tapsmas
nuo 20 metu 21 UTC su 20 metu 23 UTC
Matomumas: 1500 m
rūkana
Tapsmas
nuo 21 metu 02 UTC su 21 metu 04 UTC
Vėjas 10 kt iš Vakarų/Pietvakarių
Matomumas: 8000 m
Tapsmas
nuo 21 metu 13 UTC su 21 metu 15 UTC
Vėjas 3 kt iš Vakarų/Šiaurės Vakarų
Matomumas: 5000 m
rūkana

TAF: VTSS 201700Z 2018/2118 VRB02KT 5000 BR FEW020 BECMG 2021/2023 1500 BR BECMG 2102/2104 24010KT 8000 NSW BECMG 2113/2115 30003KT 5000 BR

Orai ataskaitas ir orų prognozės (METAR, TAF).

turimą stotys yra geltonos ir raudonos taškus žemėlapyje.

Perkelti pele per norėdami pamatyti stoties vardą.

Tada spustelėkite, norėdami matyti oro stebėjimo ir prognozės.

Norėdami pakeisti žemėlapį: spustelėkite ant žalios mygtukų su juodo kryžiaus žemyn,; žalią mygtuką su brūkšneliu, jei norite nutolinti; arba žalių rodyklių gretimoms žemėlapius.


METAR-TAF: